Lookout, Wyoming
Current Conditions -  °F | °C
As of 8:53 AM on Sunday 25 Jan 2015 (Local Time) from KLAR Reporting Station
Overcast Overcast  
Wind Chill: 24°   Ceiling: 6000
Heat Index: 36°   Visibility: 10mi
Dew Point: 25°   Wind: 24mph
Humidity: 64%   Direction: 260°W
Pressure: 30.18"   Gusts: NA
Location:  41.5395°N, 105.861°W
Report Text: KLAR 251553Z AUTO 26021KT 10SM OVC060 02/M04 A3018 RMK AO2 PK WND 26027/1545 SLP208 T00221039
Loading
Personal Weather Stations






























Interactive Weather Map New forecast layout! Learn more

10-Day Weather Forecast

Advertisements
Track Severe Weather on mobile